sensor_id;sensor_type;location;lat;lon;timestamp;temperature;humidity
30628;DHT22;17394;50.890;4.724;2022-08-11T00:01:29;18.00;99.90
30628;DHT22;17394;50.890;4.724;2022-08-11T00:04:00;18.00;99.90
30628;DHT22;17394;50.890;4.724;2022-08-11T00:06:38;17.90;99.90
30628;DHT22;17394;50.890;4.724;2022-08-11T00:09:21;17.90;99.90
30628;DHT22;17394;50.890;4.724;2022-08-11T00:11:52;17.90;99.90
30628;DHT22;17394;50.890;4.724;2022-08-11T00:14:26;17.80;99.90
30628;DHT22;17394;50.890;4.724;2022-08-11T00:17:16;17.70;99.90
30628;DHT22;17394;50.890;4.724;2022-08-11T00:19:48;17.70;99.90
30628;DHT22;17394;50.890;4.724;2022-08-11T00:22:22;17.70;99.90
30628;DHT22;17394;50.890;4.724;2022-08-11T00:24:50;17.60;99.90
30628;DHT22;17394;50.890;4.724;2022-08-11T00:27:30;17.60;99.90
30628;DHT22;17394;50.890;4.724;2022-08-11T00:30:01;17.50;99.90
30628;DHT22;17394;50.890;4.724;2022-08-11T00:32:29;17.50;99.90
30628;DHT22;17394;50.890;4.724;2022-08-11T00:34:59;17.50;99.90
30628;DHT22;17394;50.890;4.724;2022-08-11T00:37:28;17.40;99.90
30628;DHT22;17394;50.890;4.724;2022-08-11T00:39:57;17.40;99.90
30628;DHT22;17394;50.890;4.724;2022-08-11T00:43:00;17.30;99.90
30628;DHT22;17394;50.890;4.724;2022-08-11T00:45:45;17.30;99.90
30628;DHT22;17394;50.890;4.724;2022-08-11T01:00:22;17.00;99.90
30628;DHT22;17394;50.890;4.724;2022-08-11T01:06:52;17.00;99.90
30628;DHT22;17394;50.890;4.724;2022-08-11T01:10:04;16.90;99.90
30628;DHT22;17394;50.890;4.724;2022-08-11T01:37:25;16.70;99.90
30628;DHT22;17394;50.890;4.724;2022-08-11T01:40:34;16.70;99.90
30628;DHT22;17394;50.890;4.724;2022-08-11T01:46:30;16.60;99.90
30628;DHT22;17394;50.890;4.724;2022-08-11T01:49:30;16.50;99.90
30628;DHT22;17394;50.890;4.724;2022-08-11T01:55:14;16.40;99.90
30628;DHT22;17394;50.890;4.724;2022-08-11T02:07:09;16.30;99.90
30628;DHT22;17394;50.890;4.724;2022-08-11T02:16:50;16.10;99.90
30628;DHT22;17394;50.890;4.724;2022-08-11T02:19:57;16.10;99.90
30628;DHT22;17394;50.890;4.724;2022-08-11T02:32:33;15.90;99.90
30628;DHT22;17394;50.890;4.724;2022-08-11T02:38:55;15.80;99.90
30628;DHT22;17394;50.890;4.724;2022-08-11T02:45:30;15.70;99.90
30628;DHT22;17394;50.890;4.724;2022-08-11T02:55:09;15.60;99.90
30628;DHT22;17394;50.890;4.724;2022-08-11T02:57:46;15.60;99.90
30628;DHT22;17394;50.890;4.724;2022-08-11T03:00:17;15.60;99.90
30628;DHT22;17394;50.890;4.724;2022-08-11T03:03:35;15.50;99.90
30628;DHT22;17394;50.890;4.724;2022-08-11T03:06:47;15.50;99.90
30628;DHT22;17394;50.890;4.724;2022-08-11T03:09:43;15.50;99.90
30628;DHT22;17394;50.890;4.724;2022-08-11T03:13:10;15.40;99.90
30628;DHT22;17394;50.890;4.724;2022-08-11T03:19:20;15.40;99.90
30628;DHT22;17394;50.890;4.724;2022-08-11T03:33:53;15.20;99.90
30628;DHT22;17394;50.890;4.724;2022-08-11T03:46:41;15.10;99.90
30628;DHT22;17394;50.890;4.724;2022-08-11T03:50:01;15.00;99.90
30628;DHT22;17394;50.890;4.724;2022-08-11T04:18:00;14.80;99.90
30628;DHT22;17394;50.890;4.724;2022-08-11T04:40:17;14.80;99.90
30628;DHT22;17394;50.890;4.724;2022-08-11T04:56:14;15.00;99.90
30628;DHT22;17394;50.890;4.724;2022-08-11T04:59:47;15.00;99.90
30628;DHT22;17394;50.890;4.724;2022-08-11T05:12:19;15.30;99.90
30628;DHT22;17394;50.890;4.724;2022-08-11T05:14:54;15.30;99.90
30628;DHT22;17394;50.890;4.724;2022-08-11T05:18:08;15.40;99.90
30628;DHT22;17394;50.890;4.724;2022-08-11T05:21:06;15.40;99.90
30628;DHT22;17394;50.890;4.724;2022-08-11T05:27:39;15.50;99.90
30628;DHT22;17394;50.890;4.724;2022-08-11T05:30:32;15.50;99.90
30628;DHT22;17394;50.890;4.724;2022-08-11T05:33:41;15.60;99.90
30628;DHT22;17394;50.890;4.724;2022-08-11T05:37:05;15.60;99.90
30628;DHT22;17394;50.890;4.724;2022-08-11T05:39:48;15.60;99.90
30628;DHT22;17394;50.890;4.724;2022-08-11T05:42:49;15.70;99.90
30628;DHT22;17394;50.890;4.724;2022-08-11T05:45:36;15.80;99.90
30628;DHT22;17394;50.890;4.724;2022-08-11T05:48:21;15.90;99.90
30628;DHT22;17394;50.890;4.724;2022-08-11T05:51:40;16.00;99.90
30628;DHT22;17394;50.890;4.724;2022-08-11T05:54:29;16.10;99.90
30628;DHT22;17394;50.890;4.724;2022-08-11T05:57:34;16.30;99.90
30628;DHT22;17394;50.890;4.724;2022-08-11T06:00:07;16.30;99.90
30628;DHT22;17394;50.890;4.724;2022-08-11T06:02:43;16.30;99.90
30628;DHT22;17394;50.890;4.724;2022-08-11T06:05:18;16.30;99.90
30628;DHT22;17394;50.890;4.724;2022-08-11T06:07:53;16.40;99.90
30628;DHT22;17394;50.890;4.724;2022-08-11T06:10:33;16.50;99.90
30628;DHT22;17394;50.890;4.724;2022-08-11T06:13:05;16.60;99.90
30628;DHT22;17394;50.890;4.724;2022-08-11T06:15:46;16.60;99.90
30628;DHT22;17394;50.890;4.724;2022-08-11T06:18:17;16.70;99.90
30628;DHT22;17394;50.890;4.724;2022-08-11T06:20:53;16.70;99.90
30628;DHT22;17394;50.890;4.724;2022-08-11T06:23:24;16.70;99.90
30628;DHT22;17394;50.890;4.724;2022-08-11T06:26:13;16.80;99.90
30628;DHT22;17394;50.890;4.724;2022-08-11T06:28:46;16.90;99.90
30628;DHT22;17394;50.890;4.724;2022-08-11T06:31:16;16.90;99.90
30628;DHT22;17394;50.890;4.724;2022-08-11T06:34:18;17.00;99.90
30628;DHT22;17394;50.890;4.724;2022-08-11T06:37:29;17.30;99.90
30628;DHT22;17394;50.890;4.724;2022-08-11T06:40:45;17.30;99.90
30628;DHT22;17394;50.890;4.724;2022-08-11T06:46:38;17.70;99.90
30628;DHT22;17394;50.890;4.724;2022-08-11T06:49:14;17.80;99.90
30628;DHT22;17394;50.890;4.724;2022-08-11T06:52:04;18.00;99.90
30628;DHT22;17394;50.890;4.724;2022-08-11T06:54:39;18.20;99.90
30628;DHT22;17394;50.890;4.724;2022-08-11T06:57:17;18.40;99.90
30628;DHT22;17394;50.890;4.724;2022-08-11T07:00:04;18.60;99.90
30628;DHT22;17394;50.890;4.724;2022-08-11T07:03:09;18.90;99.90
30628;DHT22;17394;50.890;4.724;2022-08-11T07:06:09;19.00;99.90
30628;DHT22;17394;50.890;4.724;2022-08-11T07:15:32;19.60;99.90
30628;DHT22;17394;50.890;4.724;2022-08-11T07:18:25;19.90;99.90
30628;DHT22;17394;50.890;4.724;2022-08-11T07:21:28;20.30;99.90
30628;DHT22;17394;50.890;4.724;2022-08-11T07:24:20;20.50;99.90
30628;DHT22;17394;50.890;4.724;2022-08-11T07:27:19;20.90;99.90
30628;DHT22;17394;50.890;4.724;2022-08-11T07:30:11;21.30;99.90
30628;DHT22;17394;50.890;4.724;2022-08-11T07:33:07;21.60;99.90
30628;DHT22;17394;50.890;4.724;2022-08-11T07:35:52;21.90;99.90
30628;DHT22;17394;50.890;4.724;2022-08-11T07:38:46;22.20;99.90
30628;DHT22;17394;50.890;4.724;2022-08-11T07:41:20;22.50;99.90
30628;DHT22;17394;50.890;4.724;2022-08-11T07:43:54;22.70;99.90
30628;DHT22;17394;50.890;4.724;2022-08-11T07:46:41;23.10;99.90
30628;DHT22;17394;50.890;4.724;2022-08-11T07:49:32;23.30;99.90
30628;DHT22;17394;50.890;4.724;2022-08-11T07:52:20;23.60;99.90
30628;DHT22;17394;50.890;4.724;2022-08-11T07:55:24;23.90;99.90
30628;DHT22;17394;50.890;4.724;2022-08-11T07:57:50;24.10;99.90
30628;DHT22;17394;50.890;4.724;2022-08-11T08:00:53;24.40;99.90
30628;DHT22;17394;50.890;4.724;2022-08-11T08:03:41;24.50;99.90
30628;DHT22;17394;50.890;4.724;2022-08-11T08:06:28;24.80;99.90
30628;DHT22;17394;50.890;4.724;2022-08-11T08:09:24;25.00;99.90
30628;DHT22;17394;50.890;4.724;2022-08-11T08:12:12;25.20;99.90
30628;DHT22;17394;50.890;4.724;2022-08-11T08:15:07;25.50;99.90
30628;DHT22;17394;50.890;4.724;2022-08-11T08:17:57;25.60;99.90
30628;DHT22;17394;50.890;4.724;2022-08-11T08:20:34;25.80;99.90
30628;DHT22;17394;50.890;4.724;2022-08-11T08:23:10;25.90;99.90
30628;DHT22;17394;50.890;4.724;2022-08-11T08:25:43;26.10;99.90
30628;DHT22;17394;50.890;4.724;2022-08-11T08:28:17;26.30;99.90
30628;DHT22;17394;50.890;4.724;2022-08-11T08:30:45;26.50;99.90
30628;DHT22;17394;50.890;4.724;2022-08-11T08:33:21;26.60;99.90
30628;DHT22;17394;50.890;4.724;2022-08-11T08:35:56;26.80;99.90
30628;DHT22;17394;50.890;4.724;2022-08-11T08:38:53;27.00;99.90
30628;DHT22;17394;50.890;4.724;2022-08-11T08:41:28;27.30;98.90
30628;DHT22;17394;50.890;4.724;2022-08-11T08:44:08;27.40;97.50
30628;DHT22;17394;50.890;4.724;2022-08-11T08:46:50;27.50;96.90
30628;DHT22;17394;50.890;4.724;2022-08-11T08:49:32;27.60;95.20
30628;DHT22;17394;50.890;4.724;2022-08-11T08:52:09;27.70;93.90
30628;DHT22;17394;50.890;4.724;2022-08-11T08:54:44;27.80;93.50
30628;DHT22;17394;50.890;4.724;2022-08-11T08:57:22;27.90;92.40
30628;DHT22;17394;50.890;4.724;2022-08-11T08:59:53;28.00;92.90
30628;DHT22;17394;50.890;4.724;2022-08-11T09:02:25;28.10;92.60
30628;DHT22;17394;50.890;4.724;2022-08-11T09:04:56;28.40;92.40
30628;DHT22;17394;50.890;4.724;2022-08-11T09:07:31;28.50;87.50
30628;DHT22;17394;50.890;4.724;2022-08-11T09:10:05;28.50;87.90
30628;DHT22;17394;50.890;4.724;2022-08-11T09:12:39;28.60;87.90
30628;DHT22;17394;50.890;4.724;2022-08-11T09:15:11;28.70;90.50
30628;DHT22;17394;50.890;4.724;2022-08-11T09:18:00;28.70;90.80
30628;DHT22;17394;50.890;4.724;2022-08-11T09:20:44;28.60;90.40
30628;DHT22;17394;50.890;4.724;2022-08-11T09:23:15;28.60;91.10
30628;DHT22;17394;50.890;4.724;2022-08-11T09:26:04;28.80;90.90
30628;DHT22;17394;50.890;4.724;2022-08-11T09:28:53;29.00;88.90
30628;DHT22;17394;50.890;4.724;2022-08-11T09:31:23;29.20;86.50
30628;DHT22;17394;50.890;4.724;2022-08-11T09:33:54;29.30;83.10
30628;DHT22;17394;50.890;4.724;2022-08-11T09:36:28;29.40;81.70
30628;DHT22;17394;50.890;4.724;2022-08-11T09:39:14;29.50;79.10
30628;DHT22;17394;50.890;4.724;2022-08-11T09:42:05;29.70;79.60
30628;DHT22;17394;50.890;4.724;2022-08-11T09:44:36;29.80;78.00
30628;DHT22;17394;50.890;4.724;2022-08-11T09:47:27;29.90;78.70
30628;DHT22;17394;50.890;4.724;2022-08-11T09:50:08;30.00;78.00
30628;DHT22;17394;50.890;4.724;2022-08-11T09:52:40;30.20;77.60
30628;DHT22;17394;50.890;4.724;2022-08-11T09:55:08;30.30;75.50
30628;DHT22;17394;50.890;4.724;2022-08-11T09:57:48;30.40;76.20
30628;DHT22;17394;50.890;4.724;2022-08-11T10:00:35;30.40;73.80
30628;DHT22;17394;50.890;4.724;2022-08-11T10:05:49;30.40;72.80
30628;DHT22;17394;50.890;4.724;2022-08-11T10:08:40;30.40;74.30
30628;DHT22;17394;50.890;4.724;2022-08-11T10:11:17;30.50;74.00
30628;DHT22;17394;50.890;4.724;2022-08-11T10:13:50;30.60;72.90
30628;DHT22;17394;50.890;4.724;2022-08-11T10:16:45;30.70;72.00
30628;DHT22;17394;50.890;4.724;2022-08-11T10:19:17;30.80;71.60
30628;DHT22;17394;50.890;4.724;2022-08-11T10:21:51;30.90;72.10
30628;DHT22;17394;50.890;4.724;2022-08-11T10:24:45;31.00;71.80
30628;DHT22;17394;50.890;4.724;2022-08-11T10:27:30;31.30;72.70
30628;DHT22;17394;50.890;4.724;2022-08-11T10:30:00;31.60;71.20
30628;DHT22;17394;50.890;4.724;2022-08-11T10:32:50;31.70;67.70
30628;DHT22;17394;50.890;4.724;2022-08-11T10:35:42;31.90;69.90
30628;DHT22;17394;50.890;4.724;2022-08-11T10:38:13;32.10;68.20
30628;DHT22;17394;50.890;4.724;2022-08-11T10:40:49;32.20;67.10
30628;DHT22;17394;50.890;4.724;2022-08-11T10:43:39;32.20;65.00
30628;DHT22;17394;50.890;4.724;2022-08-11T10:46:12;32.10;63.10
30628;DHT22;17394;50.890;4.724;2022-08-11T10:49:01;32.10;65.00
30628;DHT22;17394;50.890;4.724;2022-08-11T10:51:32;32.10;63.00
30628;DHT22;17394;50.890;4.724;2022-08-11T10:54:20;32.10;64.00
30628;DHT22;17394;50.890;4.724;2022-08-11T10:57:11;32.10;63.80
30628;DHT22;17394;50.890;4.724;2022-08-11T11:00:11;32.20;62.60
30628;DHT22;17394;50.890;4.724;2022-08-11T11:02:49;32.20;62.00
30628;DHT22;17394;50.890;4.724;2022-08-11T11:05:31;32.20;60.60
30628;DHT22;17394;50.890;4.724;2022-08-11T11:08:15;32.20;61.70
30628;DHT22;17394;50.890;4.724;2022-08-11T11:11:06;32.40;62.90
30628;DHT22;17394;50.890;4.724;2022-08-11T11:13:39;32.50;60.20
30628;DHT22;17394;50.890;4.724;2022-08-11T11:16:37;32.40;58.20
30628;DHT22;17394;50.890;4.724;2022-08-11T11:19:24;32.30;59.90
30628;DHT22;17394;50.890;4.724;2022-08-11T11:21:58;32.40;58.70
30628;DHT22;17394;50.890;4.724;2022-08-11T11:36:56;32.60;56.30
30628;DHT22;17394;50.890;4.724;2022-08-11T11:39:29;32.60;56.80
30628;DHT22;17394;50.890;4.724;2022-08-11T11:42:04;32.70;56.90
30628;DHT22;17394;50.890;4.724;2022-08-11T11:44:32;32.70;57.40
30628;DHT22;17394;50.890;4.724;2022-08-11T11:47:11;32.70;56.90
30628;DHT22;17394;50.890;4.724;2022-08-11T11:49:47;32.90;54.10
30628;DHT22;17394;50.890;4.724;2022-08-11T11:52:28;32.90;55.10
30628;DHT22;17394;50.890;4.724;2022-08-11T11:54:59;32.90;54.50
30628;DHT22;17394;50.890;4.724;2022-08-11T11:57:31;32.80;53.60
30628;DHT22;17394;50.890;4.724;2022-08-11T12:00:22;32.90;54.20
30628;DHT22;17394;50.890;4.724;2022-08-11T12:03:11;33.00;54.00
30628;DHT22;17394;50.890;4.724;2022-08-11T12:05:41;33.00;52.70
30628;DHT22;17394;50.890;4.724;2022-08-11T12:08:16;33.00;52.70
30628;DHT22;17394;50.890;4.724;2022-08-11T12:10:54;33.00;52.40
30628;DHT22;17394;50.890;4.724;2022-08-11T12:13:46;33.00;53.30
30628;DHT22;17394;50.890;4.724;2022-08-11T12:16:20;33.20;53.10
30628;DHT22;17394;50.890;4.724;2022-08-11T12:18:54;33.30;53.10
30628;DHT22;17394;50.890;4.724;2022-08-11T12:21:28;33.40;51.60
30628;DHT22;17394;50.890;4.724;2022-08-11T12:24:00;33.30;51.60
30628;DHT22;17394;50.890;4.724;2022-08-11T12:26:54;33.30;52.10
30628;DHT22;17394;50.890;4.724;2022-08-11T12:29:38;33.40;51.40
30628;DHT22;17394;50.890;4.724;2022-08-11T12:32:07;33.40;52.50
30628;DHT22;17394;50.890;4.724;2022-08-11T12:34:43;33.50;52.20
30628;DHT22;17394;50.890;4.724;2022-08-11T12:37:22;33.70;52.20
30628;DHT22;17394;50.890;4.724;2022-08-11T12:39:58;33.60;51.10
30628;DHT22;17394;50.890;4.724;2022-08-11T12:42:52;33.60;51.50
30628;DHT22;17394;50.890;4.724;2022-08-11T12:45:46;33.60;50.80
30628;DHT22;17394;50.890;4.724;2022-08-11T12:48:29;33.50;51.60
30628;DHT22;17394;50.890;4.724;2022-08-11T12:51:29;33.50;51.60
30628;DHT22;17394;50.890;4.724;2022-08-11T12:54:28;33.60;52.00
30628;DHT22;17394;50.890;4.724;2022-08-11T12:57:11;33.60;52.50
30628;DHT22;17394;50.890;4.724;2022-08-11T13:00:02;33.70;52.50
30628;DHT22;17394;50.890;4.724;2022-08-11T13:02:51;33.70;51.10
30628;DHT22;17394;50.890;4.724;2022-08-11T13:05:38;33.70;52.10
30628;DHT22;17394;50.890;4.724;2022-08-11T13:08:17;33.60;51.60
30628;DHT22;17394;50.890;4.724;2022-08-11T13:10:53;33.60;53.10
30628;DHT22;17394;50.890;4.724;2022-08-11T13:13:41;33.80;51.10
30628;DHT22;17394;50.890;4.724;2022-08-11T13:16:10;33.40;49.80
30628;DHT22;17394;50.890;4.724;2022-08-11T13:18:39;33.20;51.40
30628;DHT22;17394;50.890;4.724;2022-08-11T13:21:14;33.20;52.00
30628;DHT22;17394;50.890;4.724;2022-08-11T13:23:44;33.30;51.90
30628;DHT22;17394;50.890;4.724;2022-08-11T13:26:15;33.40;51.20
30628;DHT22;17394;50.890;4.724;2022-08-11T13:28:51;33.40;51.20
30628;DHT22;17394;50.890;4.724;2022-08-11T13:31:26;33.50;51.70
30628;DHT22;17394;50.890;4.724;2022-08-11T13:33:58;33.70;51.10
30628;DHT22;17394;50.890;4.724;2022-08-11T13:36:29;33.70;51.20
30628;DHT22;17394;50.890;4.724;2022-08-11T13:39:02;33.80;51.30
30628;DHT22;17394;50.890;4.724;2022-08-11T13:41:32;33.80;50.90
30628;DHT22;17394;50.890;4.724;2022-08-11T13:44:11;33.90;51.20
30628;DHT22;17394;50.890;4.724;2022-08-11T13:46:42;34.00;51.50
30628;DHT22;17394;50.890;4.724;2022-08-11T13:49:16;34.10;50.90
30628;DHT22;17394;50.890;4.724;2022-08-11T13:51:54;34.00;49.50
30628;DHT22;17394;50.890;4.724;2022-08-11T13:54:32;34.00;49.60
30628;DHT22;17394;50.890;4.724;2022-08-11T13:57:07;33.90;49.50
30628;DHT22;17394;50.890;4.724;2022-08-11T13:59:46;33.80;49.30
30628;DHT22;17394;50.890;4.724;2022-08-11T14:02:26;33.90;49.90
30628;DHT22;17394;50.890;4.724;2022-08-11T14:05:12;33.90;49.80
30628;DHT22;17394;50.890;4.724;2022-08-11T14:08:00;33.80;50.20
30628;DHT22;17394;50.890;4.724;2022-08-11T14:10:31;33.90;51.10
30628;DHT22;17394;50.890;4.724;2022-08-11T14:13:05;34.00;51.00
30628;DHT22;17394;50.890;4.724;2022-08-11T14:16:02;34.10;51.00
30628;DHT22;17394;50.890;4.724;2022-08-11T14:18:32;34.10;49.80
30628;DHT22;17394;50.890;4.724;2022-08-11T14:21:05;34.10;50.20
30628;DHT22;17394;50.890;4.724;2022-08-11T14:24:01;34.10;50.00
30628;DHT22;17394;50.890;4.724;2022-08-11T14:26:34;34.00;50.40
30628;DHT22;17394;50.890;4.724;2022-08-11T14:29:13;34.10;50.60
30628;DHT22;17394;50.890;4.724;2022-08-11T14:31:55;34.20;48.90
30628;DHT22;17394;50.890;4.724;2022-08-11T14:34:37;34.20;49.60
30628;DHT22;17394;50.890;4.724;2022-08-11T14:37:13;34.20;49.50
30628;DHT22;17394;50.890;4.724;2022-08-11T14:39:51;34.30;49.60
30628;DHT22;17394;50.890;4.724;2022-08-11T14:42:26;34.20;48.20
30628;DHT22;17394;50.890;4.724;2022-08-11T14:45:17;34.20;48.40
30628;DHT22;17394;50.890;4.724;2022-08-11T14:48:08;34.10;47.90
30628;DHT22;17394;50.890;4.724;2022-08-11T14:50:35;34.00;47.20
30628;DHT22;17394;50.890;4.724;2022-08-11T14:53:08;33.80;48.10
30628;DHT22;17394;50.890;4.724;2022-08-11T14:55:43;33.80;48.40
30628;DHT22;17394;50.890;4.724;2022-08-11T14:58:32;33.90;47.50
30628;DHT22;17394;50.890;4.724;2022-08-11T15:01:01;33.90;48.00
30628;DHT22;17394;50.890;4.724;2022-08-11T15:03:32;34.00;47.70
30628;DHT22;17394;50.890;4.724;2022-08-11T15:06:04;33.90;46.50
30628;DHT22;17394;50.890;4.724;2022-08-11T15:08:40;33.80;46.80
30628;DHT22;17394;50.890;4.724;2022-08-11T15:11:30;33.80;47.40
30628;DHT22;17394;50.890;4.724;2022-08-11T15:14:17;33.80;48.00
30628;DHT22;17394;50.890;4.724;2022-08-11T15:17:09;33.90;47.60
30628;DHT22;17394;50.890;4.724;2022-08-11T15:19:43;33.90;46.30
30628;DHT22;17394;50.890;4.724;2022-08-11T15:22:36;33.90;46.20
30628;DHT22;17394;50.890;4.724;2022-08-11T15:25:23;33.90;46.00
30628;DHT22;17394;50.890;4.724;2022-08-11T15:27:54;33.90;45.50
30628;DHT22;17394;50.890;4.724;2022-08-11T15:30:42;33.80;44.50
30628;DHT22;17394;50.890;4.724;2022-08-11T15:33:31;33.70;44.80
30628;DHT22;17394;50.890;4.724;2022-08-11T15:36:24;33.70;46.60
30628;DHT22;17394;50.890;4.724;2022-08-11T15:39:44;33.80;46.00
30628;DHT22;17394;50.890;4.724;2022-08-11T15:42:46;33.70;44.70
30628;DHT22;17394;50.890;4.724;2022-08-11T15:45:41;33.60;45.50
30628;DHT22;17394;50.890;4.724;2022-08-11T15:49:22;33.60;46.20
30628;DHT22;17394;50.890;4.724;2022-08-11T15:51:47;33.50;45.10
30628;DHT22;17394;50.890;4.724;2022-08-11T15:54:26;33.40;45.30
30628;DHT22;17394;50.890;4.724;2022-08-11T15:57:01;33.40;46.20
30628;DHT22;17394;50.890;4.724;2022-08-11T15:59:40;33.40;45.40
30628;DHT22;17394;50.890;4.724;2022-08-11T16:02:31;33.50;45.20
30628;DHT22;17394;50.890;4.724;2022-08-11T16:05:22;33.40;45.00
30628;DHT22;17394;50.890;4.724;2022-08-11T16:07:53;33.40;45.60
30628;DHT22;17394;50.890;4.724;2022-08-11T16:10:23;33.30;45.50
30628;DHT22;17394;50.890;4.724;2022-08-11T16:13:02;33.30;46.20
30628;DHT22;17394;50.890;4.724;2022-08-11T16:15:48;33.20;45.70
30628;DHT22;17394;50.890;4.724;2022-08-11T16:18:56;33.20;44.90
30628;DHT22;17394;50.890;4.724;2022-08-11T16:21:33;33.20;45.70
30628;DHT22;17394;50.890;4.724;2022-08-11T16:24:09;33.10;45.60
30628;DHT22;17394;50.890;4.724;2022-08-11T16:26:43;33.10;46.10
30628;DHT22;17394;50.890;4.724;2022-08-11T16:29:15;33.10;46.10
30628;DHT22;17394;50.890;4.724;2022-08-11T16:31:44;33.20;45.80
30628;DHT22;17394;50.890;4.724;2022-08-11T16:34:37;33.10;45.20
30628;DHT22;17394;50.890;4.724;2022-08-11T16:37:41;33.10;45.50
30628;DHT22;17394;50.890;4.724;2022-08-11T16:40:31;33.10;46.20
30628;DHT22;17394;50.890;4.724;2022-08-11T16:43:07;33.00;46.00
30628;DHT22;17394;50.890;4.724;2022-08-11T16:45:55;33.00;46.30
30628;DHT22;17394;50.890;4.724;2022-08-11T16:48:45;33.00;46.40
30628;DHT22;17394;50.890;4.724;2022-08-11T16:51:17;33.00;46.10
30628;DHT22;17394;50.890;4.724;2022-08-11T16:53:50;32.90;46.30
30628;DHT22;17394;50.890;4.724;2022-08-11T16:56:29;32.90;46.50
30628;DHT22;17394;50.890;4.724;2022-08-11T16:59:02;32.80;45.90
30628;DHT22;17394;50.890;4.724;2022-08-11T17:01:52;32.70;45.30
30628;DHT22;17394;50.890;4.724;2022-08-11T17:04:40;32.50;45.80
30628;DHT22;17394;50.890;4.724;2022-08-11T17:07:30;32.30;46.60
30628;DHT22;17394;50.890;4.724;2022-08-11T17:10:35;32.10;47.20
30628;DHT22;17394;50.890;4.724;2022-08-11T17:13:49;31.90;47.20
30628;DHT22;17394;50.890;4.724;2022-08-11T17:16:32;31.70;47.40
30628;DHT22;17394;50.890;4.724;2022-08-11T17:19:21;31.50;47.80
30628;DHT22;17394;50.890;4.724;2022-08-11T17:21:59;31.40;47.60
30628;DHT22;17394;50.890;4.724;2022-08-11T17:24:50;31.20;47.90
30628;DHT22;17394;50.890;4.724;2022-08-11T17:27:27;31.20;48.30
30628;DHT22;17394;50.890;4.724;2022-08-11T17:30:04;31.00;48.90
30628;DHT22;17394;50.890;4.724;2022-08-11T17:32:42;30.90;49.10
30628;DHT22;17394;50.890;4.724;2022-08-11T17:35:41;30.80;49.10
30628;DHT22;17394;50.890;4.724;2022-08-11T17:38:23;30.70;49.20
30628;DHT22;17394;50.890;4.724;2022-08-11T17:40:59;30.60;49.70
30628;DHT22;17394;50.890;4.724;2022-08-11T17:43:54;30.60;50.30
30628;DHT22;17394;50.890;4.724;2022-08-11T17:46:44;30.40;50.90
30628;DHT22;17394;50.890;4.724;2022-08-11T17:49:39;30.30;50.80
30628;DHT22;17394;50.890;4.724;2022-08-11T17:52:10;30.20;51.10
30628;DHT22;17394;50.890;4.724;2022-08-11T17:55:03;30.10;50.80
30628;DHT22;17394;50.890;4.724;2022-08-11T17:57:55;30.00;51.30
30628;DHT22;17394;50.890;4.724;2022-08-11T18:00:49;29.90;51.40
30628;DHT22;17394;50.890;4.724;2022-08-11T18:03:22;29.80;52.20
30628;DHT22;17394;50.890;4.724;2022-08-11T18:06:02;29.70;52.00
30628;DHT22;17394;50.890;4.724;2022-08-11T18:08:45;29.60;52.40
30628;DHT22;17394;50.890;4.724;2022-08-11T18:11:33;29.50;52.80
30628;DHT22;17394;50.890;4.724;2022-08-11T18:14:23;29.30;53.40
30628;DHT22;17394;50.890;4.724;2022-08-11T18:17:12;29.20;53.80
30628;DHT22;17394;50.890;4.724;2022-08-11T18:20:00;29.10;54.60
30628;DHT22;17394;50.890;4.724;2022-08-11T18:22:47;28.90;54.70
30628;DHT22;17394;50.890;4.724;2022-08-11T18:25:43;28.80;54.90
30628;DHT22;17394;50.890;4.724;2022-08-11T18:28:45;28.60;55.40
30628;DHT22;17394;50.890;4.724;2022-08-11T18:31:44;28.50;56.00
30628;DHT22;17394;50.890;4.724;2022-08-11T18:34:41;28.30;56.90
30628;DHT22;17394;50.890;4.724;2022-08-11T18:37:35;28.10;57.70
30628;DHT22;17394;50.890;4.724;2022-08-11T18:40:26;27.90;58.20
30628;DHT22;17394;50.890;4.724;2022-08-11T18:43:20;27.80;58.80
30628;DHT22;17394;50.890;4.724;2022-08-11T18:46:15;27.60;58.90
30628;DHT22;17394;50.890;4.724;2022-08-11T18:49:11;27.40;59.70
30628;DHT22;17394;50.890;4.724;2022-08-11T18:52:00;27.20;59.80
30628;DHT22;17394;50.890;4.724;2022-08-11T18:54:48;27.10;60.30
30628;DHT22;17394;50.890;4.724;2022-08-11T18:57:39;26.90;61.40
30628;DHT22;17394;50.890;4.724;2022-08-11T19:00:26;26.70;61.60
30628;DHT22;17394;50.890;4.724;2022-08-11T19:03:18;26.60;62.40
30628;DHT22;17394;50.890;4.724;2022-08-11T19:06:13;26.40;63.00
30628;DHT22;17394;50.890;4.724;2022-08-11T19:09:06;26.20;63.40
30628;DHT22;17394;50.890;4.724;2022-08-11T19:12:01;26.00;64.00
30628;DHT22;17394;50.890;4.724;2022-08-11T19:14:57;25.90;64.50
30628;DHT22;17394;50.890;4.724;2022-08-11T19:17:53;25.70;64.90
30628;DHT22;17394;50.890;4.724;2022-08-11T19:20:50;25.50;65.50
30628;DHT22;17394;50.890;4.724;2022-08-11T19:23:53;25.40;66.10
30628;DHT22;17394;50.890;4.724;2022-08-11T19:26:47;25.20;66.50
30628;DHT22;17394;50.890;4.724;2022-08-11T19:29:43;25.10;67.30
30628;DHT22;17394;50.890;4.724;2022-08-11T19:32:33;25.00;67.50
30628;DHT22;17394;50.890;4.724;2022-08-11T19:35:30;24.90;67.90
30628;DHT22;17394;50.890;4.724;2022-08-11T19:38:21;24.80;68.30
30628;DHT22;17394;50.890;4.724;2022-08-11T19:41:11;24.60;68.60
30628;DHT22;17394;50.890;4.724;2022-08-11T19:44:03;24.50;69.10
30628;DHT22;17394;50.890;4.724;2022-08-11T19:46:52;24.40;69.80
30628;DHT22;17394;50.890;4.724;2022-08-11T19:49:41;24.30;70.00
30628;DHT22;17394;50.890;4.724;2022-08-11T19:52:33;24.10;70.00
30628;DHT22;17394;50.890;4.724;2022-08-11T19:55:20;24.10;70.60
30628;DHT22;17394;50.890;4.724;2022-08-11T19:58:12;23.90;70.90
30628;DHT22;17394;50.890;4.724;2022-08-11T20:01:07;23.90;71.20
30628;DHT22;17394;50.890;4.724;2022-08-11T20:03:51;23.70;71.50
30628;DHT22;17394;50.890;4.724;2022-08-11T20:06:40;23.70;71.80
30628;DHT22;17394;50.890;4.724;2022-08-11T20:09:27;23.60;72.20
30628;DHT22;17394;50.890;4.724;2022-08-11T20:12:17;23.50;72.20
30628;DHT22;17394;50.890;4.724;2022-08-11T20:15:07;23.40;72.60
30628;DHT22;17394;50.890;4.724;2022-08-11T20:17:58;23.30;72.60
30628;DHT22;17394;50.890;4.724;2022-08-11T20:20:55;23.20;72.70
30628;DHT22;17394;50.890;4.724;2022-08-11T20:23:46;23.10;73.00
30628;DHT22;17394;50.890;4.724;2022-08-11T20:26:38;23.00;73.40
30628;DHT22;17394;50.890;4.724;2022-08-11T20:29:32;22.90;73.80
30628;DHT22;17394;50.890;4.724;2022-08-11T20:32:22;22.80;74.10
30628;DHT22;17394;50.890;4.724;2022-08-11T20:35:09;22.70;74.60
30628;DHT22;17394;50.890;4.724;2022-08-11T20:38:00;22.60;75.00
30628;DHT22;17394;50.890;4.724;2022-08-11T20:40:49;22.50;75.60
30628;DHT22;17394;50.890;4.724;2022-08-11T20:43:40;22.40;76.10
30628;DHT22;17394;50.890;4.724;2022-08-11T20:46:28;22.30;76.50
30628;DHT22;17394;50.890;4.724;2022-08-11T20:49:16;22.20;76.70